createdAt,value
2022-08-10T00:02:11.111Z,2.47
2022-08-10T00:05:54.945Z,2.15
2022-08-10T00:09:50.715Z,1.85
2022-08-10T00:13:33.407Z,2.70
2022-08-10T00:17:15.319Z,2.28
2022-08-10T00:20:57.179Z,2.40
2022-08-10T00:24:43.038Z,2.72
2022-08-10T00:28:25.107Z,2.08
2022-08-10T00:32:07.108Z,2.03
2022-08-10T00:35:49.160Z,2.53
2022-08-10T00:39:34.514Z,3.17
2022-08-10T00:43:23.418Z,2.63
2022-08-10T00:47:07.164Z,2.05
2022-08-10T00:51:05.463Z,2.28
2022-08-10T00:54:48.014Z,2.95
2022-08-10T00:58:30.142Z,2.25
2022-08-10T01:02:12.127Z,2.58
2022-08-10T01:06:15.342Z,2.45
2022-08-10T01:10:22.396Z,2.90
2022-08-10T01:14:16.546Z,2.65
2022-08-10T01:18:00.629Z,2.45
2022-08-10T01:21:54.265Z,2.58
2022-08-10T01:26:11.853Z,2.42
2022-08-10T01:34:02.425Z,2.47
2022-08-10T01:37:52.323Z,2.53
2022-08-10T01:41:46.797Z,2.85
2022-08-10T01:45:44.896Z,2.72
2022-08-10T01:49:29.806Z,2.50
2022-08-10T01:53:18.600Z,3.08
2022-08-10T01:57:03.056Z,2.67
2022-08-10T02:00:48.371Z,3.25
2022-08-10T02:04:34.364Z,2.67
2022-08-10T02:08:17.844Z,3.37
2022-08-10T02:12:08.600Z,2.90
2022-08-10T02:16:01.546Z,3.20
2022-08-10T02:19:46.255Z,2.67
2022-08-10T02:23:31.176Z,2.80
2022-08-10T02:27:14.196Z,2.60
2022-08-10T02:31:02.954Z,2.70
2022-08-10T02:34:49.940Z,2.97
2022-08-10T02:38:57.536Z,2.50
2022-08-10T02:45:29.444Z,3.15
2022-08-10T02:47:17.960Z,3.17
2022-08-10T02:51:04.988Z,3.55
2022-08-10T02:54:55.523Z,3.22
2022-08-10T02:58:44.863Z,2.80
2022-08-10T03:02:34.534Z,2.85
2022-08-10T03:06:22.124Z,2.80
2022-08-10T03:10:13.256Z,2.80
2022-08-10T03:13:59.840Z,3.22
2022-08-10T03:17:43.426Z,2.63
2022-08-10T03:21:42.794Z,2.95
2022-08-10T03:25:31.784Z,3.33
2022-08-10T03:29:13.632Z,2.72
2022-08-10T03:32:56.827Z,2.38
2022-08-10T03:36:40.287Z,3.10
2022-08-10T03:40:32.322Z,3.00
2022-08-10T03:44:32.937Z,3.38
2022-08-10T03:48:18.231Z,3.13
2022-08-10T03:52:01.348Z,3.42
2022-08-10T03:56:28.592Z,3.70
2022-08-10T03:59:45.921Z,4.30
2022-08-10T04:03:29.329Z,3.97
2022-08-10T04:07:11.641Z,3.40
2022-08-10T04:10:53.524Z,2.78
2022-08-10T04:14:49.154Z,3.17
2022-08-10T04:18:34.155Z,3.22
2022-08-10T04:22:20.501Z,3.30
2022-08-10T04:26:02.819Z,3.28
2022-08-10T04:29:45.396Z,2.95
2022-08-10T04:33:29.155Z,2.97
2022-08-10T04:37:13.059Z,3.15
2022-08-10T04:40:58.232Z,3.15
2022-08-10T04:44:41.760Z,3.08
2022-08-10T04:48:40.699Z,3.13
2022-08-10T04:52:25.538Z,3.67
2022-08-10T04:56:08.804Z,3.28
2022-08-10T04:59:50.648Z,3.38
2022-08-10T05:03:32.601Z,3.03
2022-08-10T05:07:18.135Z,4.03
2022-08-10T05:11:00.380Z,3.75
2022-08-10T05:14:42.325Z,3.60
2022-08-10T05:18:24.293Z,3.80
2022-08-10T05:22:06.360Z,3.92
2022-08-10T05:25:48.175Z,3.60
2022-08-10T05:29:30.325Z,3.53
2022-08-10T05:33:12.145Z,3.63
2022-08-10T05:36:55.434Z,3.88
2022-08-10T05:40:39.552Z,4.03
2022-08-10T05:44:22.200Z,3.92
2022-08-10T05:48:53.977Z,3.85
2022-08-10T05:52:06.663Z,5.63
2022-08-10T05:55:48.588Z,4.03
2022-08-10T06:00:11.054Z,4.30
2022-08-10T06:03:54.141Z,3.85
2022-08-10T06:07:46.709Z,4.20
2022-08-10T06:12:24.575Z,4.20
2022-08-10T06:15:51.714Z,3.97
2022-08-10T06:19:35.372Z,4.45
2022-08-10T06:23:17.794Z,4.28
2022-08-10T06:27:00.745Z,4.20
2022-08-10T06:30:45.158Z,4.75
2022-08-10T06:34:33.771Z,5.35
2022-08-10T06:38:16.393Z,5.78
2022-08-10T06:42:37.940Z,5.43
2022-08-10T06:46:23.253Z,5.22
2022-08-10T06:50:34.421Z,5.13
2022-08-10T06:54:27.568Z,6.03
2022-08-10T06:58:12.773Z,5.60
2022-08-10T07:02:07.680Z,4.85
2022-08-10T07:05:51.951Z,5.47
2022-08-10T07:09:39.231Z,5.88
2022-08-10T07:14:17.478Z,5.35
2022-08-10T07:17:25.651Z,4.80
2022-08-10T07:21:08.411Z,5.20
2022-08-10T07:24:51.875Z,4.95
2022-08-10T07:28:34.414Z,5.47
2022-08-10T07:32:17.419Z,4.57
2022-08-10T07:36:00.005Z,4.43
2022-08-10T07:40:02.885Z,3.70
2022-08-10T07:43:49.558Z,3.67
2022-08-10T07:47:53.648Z,5.03
2022-08-10T07:51:37.443Z,3.45
2022-08-10T07:56:05.944Z,3.90
2022-08-10T07:59:35.789Z,3.42
2022-08-10T08:03:24.816Z,3.50
2022-08-10T08:07:08.659Z,3.22
2022-08-10T08:10:51.455Z,2.97
2022-08-10T08:14:37.957Z,3.00
2022-08-10T08:24:14.786Z,3.08
2022-08-10T08:26:15.493Z,3.22
2022-08-10T08:30:00.026Z,2.58
2022-08-10T08:33:44.474Z,2.95
2022-08-10T08:38:32.639Z,2.80
2022-08-10T08:42:02.520Z,3.03
2022-08-10T08:46:00.791Z,3.05
2022-08-10T08:50:14.918Z,2.42
2022-08-10T08:54:21.165Z,3.05
2022-08-10T08:58:02.948Z,2.28
2022-08-10T09:02:15.919Z,2.50
2022-08-10T09:06:36.347Z,1.83
2022-08-10T09:10:52.284Z,1.73
2022-08-10T09:18:53.867Z,1.52
2022-08-10T09:22:42.922Z,1.80
2022-08-10T09:26:49.435Z,1.65
2022-08-10T09:30:40.544Z,1.25
2022-08-10T09:36:22.293Z,1.60
2022-08-10T09:40:12.685Z,1.48
2022-08-10T09:44:00.260Z,1.58
2022-08-10T09:48:02.511Z,1.13
2022-08-10T09:51:54.065Z,0.98
2022-08-10T09:56:17.577Z,1.38
2022-08-10T10:00:01.367Z,1.17
2022-08-10T10:03:58.772Z,0.70
2022-08-10T10:07:58.372Z,0.70
2022-08-10T10:11:57.893Z,0.65
2022-08-10T10:16:07.888Z,0.50
2022-08-10T10:20:14.460Z,0.60
2022-08-10T10:24:22.265Z,0.50
2022-08-10T10:29:15.193Z,0.32
2022-08-10T10:33:13.373Z,0.30
2022-08-10T10:37:00.148Z,0.30
2022-08-10T10:41:01.763Z,0.30
2022-08-10T10:45:06.805Z,0.38
2022-08-10T10:49:11.389Z,0.38
2022-08-10T10:53:30.449Z,0.40
2022-08-10T10:58:00.257Z,0.40
2022-08-10T11:01:47.817Z,0.25
2022-08-10T11:05:30.495Z,0.30
2022-08-10T11:10:04.785Z,0.32
2022-08-10T11:14:25.225Z,0.30
2022-08-10T11:17:52.715Z,0.25
2022-08-10T11:21:45.613Z,0.20
2022-08-10T11:25:32.966Z,0.40
2022-08-10T11:29:31.006Z,0.30
2022-08-10T11:33:30.824Z,0.30
2022-08-10T11:38:31.263Z,0.20
2022-08-10T11:42:09.256Z,0.20
2022-08-10T11:46:28.218Z,0.30
2022-08-10T11:50:19.999Z,0.20
2022-08-10T11:54:51.572Z,0.40
2022-08-10T11:58:54.457Z,0.25
2022-08-10T12:02:42.095Z,0.38
2022-08-10T12:06:54.081Z,0.30
2022-08-10T12:10:30.637Z,0.22
2022-08-10T12:14:29.296Z,0.30
2022-08-10T12:18:24.445Z,0.50
2022-08-10T12:22:10.708Z,0.25
2022-08-10T12:25:58.696Z,0.30
2022-08-10T12:29:49.435Z,0.20
2022-08-10T12:34:02.534Z,0.20
2022-08-10T12:38:10.209Z,0.28
2022-08-10T12:42:36.829Z,0.20
2022-08-10T12:46:52.135Z,0.38
2022-08-10T12:51:03.473Z,0.40
2022-08-10T12:54:46.452Z,0.20
2022-08-10T13:02:45.203Z,0.40
2022-08-10T13:06:32.781Z,0.40
2022-08-10T13:10:17.060Z,0.32
2022-08-10T13:14:06.985Z,0.35
2022-08-10T13:17:52.667Z,0.20
2022-08-10T13:21:38.144Z,0.17
2022-08-10T13:25:28.744Z,0.38
2022-08-10T13:29:17.303Z,0.22
2022-08-10T13:33:11.741Z,0.32
2022-08-10T13:36:58.799Z,0.30
2022-08-10T13:40:41.145Z,0.40
2022-08-10T13:44:32.816Z,0.20
2022-08-10T13:48:19.892Z,0.43
2022-08-10T13:52:02.056Z,0.28
2022-08-10T13:55:55.159Z,0.15
2022-08-10T14:00:37.664Z,0.30
2022-08-10T14:03:44.698Z,0.50
2022-08-10T14:07:27.712Z,0.40
2022-08-10T14:11:16.564Z,0.30
2022-08-10T14:15:00.972Z,0.30
2022-08-10T14:18:45.207Z,0.73
2022-08-10T14:22:33.594Z,0.38
2022-08-10T14:26:21.785Z,0.40
2022-08-10T14:30:05.802Z,0.45
2022-08-10T14:33:55.517Z,0.38
2022-08-10T14:37:41.540Z,0.30
2022-08-10T14:42:04.456Z,0.30
2022-08-10T14:45:35.945Z,0.32
2022-08-10T14:49:25.776Z,0.40
2022-08-10T14:53:15.718Z,0.70
2022-08-10T14:57:10.624Z,0.30
2022-08-10T15:00:55.532Z,0.57
2022-08-10T15:04:38.873Z,0.60
2022-08-10T15:08:24.687Z,0.65
2022-08-10T15:12:14.224Z,0.60
2022-08-10T15:16:12.589Z,0.50
2022-08-10T15:20:13.822Z,0.50
2022-08-10T15:24:04.617Z,0.50
2022-08-10T15:27:55.837Z,0.90
2022-08-10T15:31:58.057Z,0.70
2022-08-10T15:36:00.368Z,0.93
2022-08-10T15:40:25.570Z,0.47
2022-08-10T15:44:01.832Z,0.60
2022-08-10T15:47:51.918Z,0.60
2022-08-10T15:51:52.922Z,0.52
2022-08-10T15:55:57.549Z,0.70
2022-08-10T15:59:53.640Z,0.90
2022-08-10T16:03:43.908Z,0.70
2022-08-10T16:07:57.560Z,0.70
2022-08-10T16:11:42.471Z,0.70
2022-08-10T16:15:26.459Z,0.65
2022-08-10T16:19:22.136Z,0.97
2022-08-10T16:23:15.211Z,0.63
2022-08-10T16:26:58.616Z,0.73
2022-08-10T16:30:45.018Z,0.70
2022-08-10T16:34:29.712Z,0.60
2022-08-10T16:38:13.331Z,0.80
2022-08-10T16:42:03.306Z,0.82
2022-08-10T16:45:51.149Z,0.80
2022-08-10T16:49:38.904Z,1.40
2022-08-10T16:53:22.723Z,1.55
2022-08-10T16:57:05.756Z,1.27
2022-08-10T17:00:49.459Z,1.33
2022-08-10T17:04:33.271Z,1.00
2022-08-10T17:08:18.985Z,1.23
2022-08-10T17:12:10.644Z,1.45
2022-08-10T17:16:00.747Z,2.17
2022-08-10T17:19:45.072Z,1.52
2022-08-10T17:23:34.342Z,1.40
2022-08-10T17:28:04.948Z,1.20
2022-08-10T17:31:54.157Z,1.35
2022-08-10T17:35:37.302Z,1.20
2022-08-10T17:39:24.861Z,1.30
2022-08-10T17:43:07.886Z,0.90
2022-08-10T17:46:50.786Z,0.80
2022-08-10T17:50:34.159Z,0.65
2022-08-10T17:54:31.074Z,0.90
2022-08-10T17:58:15.987Z,0.70
2022-08-10T18:02:08.593Z,0.60
2022-08-10T18:06:18.223Z,1.08
2022-08-10T18:10:01.903Z,1.00
2022-08-10T18:13:55.155Z,0.80
2022-08-10T18:17:40.807Z,0.80
2022-08-10T18:21:24.553Z,1.00
2022-08-10T18:25:15.977Z,0.52
2022-08-10T18:28:58.192Z,0.70
2022-08-10T18:32:41.163Z,0.77
2022-08-10T18:36:25.691Z,1.45
2022-08-10T18:40:10.583Z,1.10
2022-08-10T18:44:11.836Z,1.42
2022-08-10T18:48:16.011Z,1.25
2022-08-10T18:52:04.227Z,1.17
2022-08-10T18:56:09.600Z,0.80
2022-08-10T19:00:12.934Z,0.88
2022-08-10T19:04:17.969Z,0.70
2022-08-10T19:08:37.059Z,0.90
2022-08-10T19:12:51.687Z,1.00
2022-08-10T19:17:15.130Z,1.70
2022-08-10T19:21:30.829Z,5.53
2022-08-10T19:26:36.451Z,5.72
2022-08-10T19:30:11.683Z,5.47
2022-08-10T19:34:12.271Z,3.70
2022-08-10T19:38:03.484Z,2.75
2022-08-10T19:42:11.439Z,2.25
2022-08-10T19:46:12.953Z,1.23
2022-08-10T19:50:07.141Z,1.33
2022-08-10T19:54:00.849Z,1.38
2022-08-10T19:58:03.540Z,1.42
2022-08-10T20:01:56.245Z,1.27
2022-08-10T20:06:19.535Z,1.60
2022-08-10T20:09:57.348Z,1.27
2022-08-10T20:14:25.878Z,1.33
2022-08-10T20:18:19.212Z,2.13
2022-08-10T20:22:08.010Z,2.13
2022-08-10T20:26:01.490Z,1.00
2022-08-10T20:30:02.439Z,1.20
2022-08-10T20:34:02.157Z,1.33
2022-08-10T20:38:03.969Z,1.65
2022-08-10T20:42:11.399Z,1.58
2022-08-10T20:46:11.082Z,1.90
2022-08-10T20:50:05.045Z,1.30
2022-08-10T20:53:53.165Z,1.60
2022-08-10T20:58:01.875Z,1.70
2022-08-10T21:02:13.547Z,1.70
2022-08-10T21:06:31.489Z,1.30
2022-08-10T21:10:34.691Z,1.08
2022-08-10T21:14:31.669Z,1.10
2022-08-10T21:18:51.893Z,1.75
2022-08-10T21:22:40.191Z,1.77
2022-08-10T21:26:37.103Z,1.52
2022-08-10T21:30:24.758Z,1.40
2022-08-10T21:34:31.681Z,1.40
2022-08-10T21:38:26.608Z,1.27
2022-08-10T21:42:40.691Z,1.48
2022-08-10T21:47:38.018Z,1.48
2022-08-10T21:52:00.308Z,1.55
2022-08-10T21:56:37.088Z,1.33
2022-08-10T22:00:37.657Z,1.58
2022-08-10T22:04:40.206Z,1.60
2022-08-10T22:09:03.601Z,1.50
2022-08-10T22:13:08.353Z,1.60
2022-08-10T22:18:00.265Z,1.60
2022-08-10T22:22:38.513Z,1.55
2022-08-10T22:27:00.584Z,1.52
2022-08-10T22:31:30.025Z,2.10
2022-08-10T22:35:43.310Z,1.60
2022-08-10T22:40:12.820Z,1.88
2022-08-10T22:44:20.376Z,1.77
2022-08-10T22:48:23.807Z,1.63
2022-08-10T22:52:17.812Z,1.77
2022-08-10T22:56:18.364Z,1.92
2022-08-10T23:00:17.061Z,1.80
2022-08-10T23:03:59.853Z,2.20
2022-08-10T23:07:51.282Z,2.08
2022-08-10T23:11:38.063Z,2.33
2022-08-10T23:15:50.755Z,2.85
2022-08-10T23:19:40.592Z,2.90
2022-08-10T23:23:24.414Z,2.38
2022-08-10T23:27:12.627Z,1.95
2022-08-10T23:30:56.275Z,2.30
2022-08-10T23:34:42.966Z,2.78
2022-08-10T23:38:27.771Z,2.80
2022-08-10T23:42:14.895Z,2.58
2022-08-10T23:46:03.224Z,2.80
2022-08-10T23:49:47.937Z,2.65
2022-08-10T23:53:42.303Z,2.40
2022-08-10T23:57:26.866Z,2.13
